Time;durP1;ratioP1;P1;durP2;ratioP2;P2;SDS_P1;SDS_P2;PMS_P1;PMS_P2;Temp;Humidity;BMP_temperature;BMP_pressure;BME280_temperature;BME280_humidity;BME280_pressure;Samples;Min_cycle;Max_cycle;Signal;HPM_P1;HPM_P2
2021/04/27 00:01:03;;;;;;;7.60;6.90;;;11.10;44.30;;;;;;5053119;28;20481;-72
2021/04/27 00:03:30;;;;;;;7.90;6.63;;;11.00;44.50;;;;;;5053176;28;20458;-72
2021/04/27 00:05:56;;;;;;;7.13;6.43;;;11.00;44.70;;;;;;5053866;28;20449;-71
2021/04/27 00:08:22;;;;;;;8.80;7.40;;;10.90;44.90;;;;;;5053135;28;20497;-71
2021/04/27 00:10:48;;;;;;;9.03;7.30;;;10.90;45.10;;;;;;5053188;28;20473;-71
2021/04/27 00:13:15;;;;;;;6.57;5.97;;;10.80;45.30;;;;;;5053383;28;20454;-71
2021/04/27 00:15:42;;;;;;;7.10;6.40;;;10.80;45.30;;;;;;5052717;28;20845;-71
2021/04/27 00:18:08;;;;;;;7.20;6.40;;;10.80;45.20;;;;;;5053125;28;20446;-71
2021/04/27 00:20:35;;;;;;;7.57;6.87;;;10.70;45.30;;;;;;5052847;28;21048;-71
2021/04/27 00:23:01;;;;;;;8.00;6.83;;;10.70;45.30;;;;;;5053092;28;20476;-71
2021/04/27 00:25:27;;;;;;;7.50;6.20;;;10.70;45.60;;;;;;5053063;28;20445;-71
2021/04/27 00:27:55;;;;;;;7.90;6.77;;;10.70;45.90;;;;;;5052772;28;20447;-71
2021/04/27 00:30:24;;;;;;;7.53;6.57;;;10.70;46.70;;;;;;5052981;28;20902;-73
2021/04/27 00:32:51;;;;;;;7.63;6.93;;;10.70;46.50;;;;;;5055233;28;20496;-71
2021/04/27 00:35:18;;;;;;;9.20;6.60;;;10.60;46.50;;;;;;5056572;28;20546;-71
2021/04/27 00:37:45;;;;;;;8.43;6.77;;;10.60;46.70;;;;;;5056848;28;20859;-71
2021/04/27 00:40:14;;;;;;;7.73;6.80;;;10.60;46.60;;;;;;5056510;28;20461;-72
2021/04/27 00:42:45;;;;;;;9.50;6.40;;;10.60;46.40;;;;;;5056685;28;20547;-71
2021/04/27 00:45:12;;;;;;;9.83;7.17;;;10.70;46.60;;;;;;5056509;28;20476;-73
2021/04/27 00:47:39;;;;;;;10.53;6.93;;;10.60;46.70;;;;;;5056477;28;20824;-71
2021/04/27 00:50:10;;;;;;;7.80;6.60;;;10.60;46.50;;;;;;5055962;28;20452;-71
2021/04/27 00:52:37;;;;;;;5.90;5.30;;;10.50;46.50;;;;;;5056269;28;20430;-72
2021/04/27 00:55:04;;;;;;;5.70;5.10;;;10.40;46.10;;;;;;5055848;28;20482;-72
2021/04/27 00:57:31;;;;;;;6.73;6.13;;;10.40;46.10;;;;;;5056152;28;20876;-72
2021/04/27 00:59:58;;;;;;;6.97;5.83;;;10.30;46.40;;;;;;5056198;28;20452;-72
2021/04/27 01:02:24;;;;;;;6.37;5.70;;;10.20;46.50;;;;;;5056970;28;20462;-73
2021/04/27 01:04:50;;;;;;;6.93;6.23;;;10.10;46.90;;;;;;5056044;28;20522;-73
2021/04/27 01:07:20;;;;;;;6.93;5.70;;;10.00;47.20;;;;;;5055701;28;20955;-73
2021/04/27 01:09:50;;;;;;;5.90;5.30;;;9.90;48.20;;;;;;5055937;28;20442;-73
2021/04/27 01:12:23;;;;;;;6.60;5.80;;;9.80;48.30;;;;;;5055905;28;20437;-73
2021/04/27 01:14:58;;;;;;;7.70;5.90;;;9.80;48.70;;;;;;5055781;28;20472;-73
2021/04/27 01:17:25;;;;;;;7.40;6.13;;;9.80;48.70;;;;;;5055800;28;20431;-73
2021/04/27 01:20:08;;;;;;;8.50;6.33;;;9.80;48.70;;;;;;5055633;28;20444;-73
2021/04/27 01:22:47;;;;;;;7.83;6.80;;;9.80;48.90;;;;;;5055704;28;20438;-73
2021/04/27 01:25:18;;;;;;;10.27;6.57;;;9.80;48.90;;;;;;5055767;28;20433;-72
2021/04/27 01:27:45;;;;;;;8.93;6.20;;;9.80;49.10;;;;;;5055764;28;20429;-72
2021/04/27 01:30:13;;;;;;;6.57;5.90;;;9.80;49.20;;;;;;5055539;28;20829;-72
2021/04/27 01:32:39;;;;;;;8.00;6.10;;;9.80;49.30;;;;;;5055812;28;20441;-72
2021/04/27 01:35:06;;;;;;;6.70;6.10;;;9.80;49.50;;;;;;5055519;28;20477;-72
2021/04/27 01:37:33;;;;;;;6.40;5.80;;;9.70;49.60;;;;;;5055166;28;20454;-72
2021/04/27 01:40:00;;;;;;;10.43;6.90;;;9.70;49.80;;;;;;5055323;28;20448;-73
2021/04/27 01:42:27;;;;;;;6.03;5.40;;;9.70;49.90;;;;;;5055054;28;20792;-73
2021/04/27 01:44:55;;;;;;;7.20;6.50;;;9.70;50.10;;;;;;5055331;28;20445;-72
2021/04/27 01:47:22;;;;;;;7.30;6.40;;;9.70;50.00;;;;;;5055138;28;20502;-72
2021/04/27 01:49:48;;;;;;;6.33;5.73;;;9.70;50.10;;;;;;5055150;28;20447;-72
2021/04/27 01:52:16;;;;;;;8.50;6.20;;;9.70;50.30;;;;;;5055074;28;20473;-72
2021/04/27 01:54:42;;;;;;;7.77;6.10;;;9.60;50.30;;;;;;5054949;28;20481;-72
2021/04/27 01:57:09;;;;;;;7.07;6.40;;;9.60;50.20;;;;;;5055061;28;20853;-72
2021/04/27 01:59:35;;;;;;;7.33;6.63;;;9.60;50.10;;;;;;5054913;28;20442;-72
2021/04/27 02:02:02;;;;;;;10.40;6.57;;;9.60;50.20;;;;;;5054610;28;20486;-72
2021/04/27 02:04:29;;;;;;;7.47;5.73;;;9.60;50.30;;;;;;5054903;28;20442;-72
2021/04/27 02:06:56;;;;;;;7.60;6.83;;;9.50;50.50;;;;;;5055384;28;20449;-72
2021/04/27 02:09:25;;;;;;;6.93;6.17;;;9.50;50.50;;;;;;5055396;28;20447;-72
2021/04/27 02:11:54;;;;;;;7.70;6.53;;;9.50;50.60;;;;;;5063891;22;20485;-80
2021/04/27 02:14:22;;;;;;;6.67;6.03;;;9.50;50.60;;;;;;5057472;28;20485;-81
2021/04/27 02:16:54;;;;;;;8.40;6.30;;;9.50;50.60;;;;;;5057810;28;20449;-81
2021/04/27 02:19:24;;;;;;;6.77;6.00;;;9.50;50.60;;;;;;5058263;28;20437;-81
2021/04/27 02:21:54;;;;;;;7.90;6.47;;;9.50;50.80;;;;;;5057912;28;20438;-81
2021/04/27 02:24:21;;;;;;;7.20;6.40;;;9.50;50.80;;;;;;5058204;28;20469;-80
2021/04/27 02:26:48;;;;;;;6.33;5.73;;;9.40;50.90;;;;;;5056167;28;20453;-80
2021/04/27 02:29:15;;;;;;;6.37;5.77;;;9.40;51.00;;;;;;5056348;28;20438;-78
2021/04/27 02:31:41;;;;;;;7.30;6.20;;;9.40;51.20;;;;;;5056624;28;20449;-79
2021/04/27 02:34:07;;;;;;;11.83;7.07;;;9.40;51.30;;;;;;5055858;28;20481;-81
2021/04/27 02:36:37;;;;;;;7.23;6.53;;;9.30;51.20;;;;;;5055903;28;20450;-80
2021/04/27 02:39:06;;;;;;;7.53;6.77;;;9.40;51.40;;;;;;5055531;28;20498;-78
2021/04/27 02:41:33;;;;;;;8.57;6.53;;;9.30;51.40;;;;;;5056043;28;20457;-78
2021/04/27 02:44:01;;;;;;;11.77;7.13;;;9.30;51.50;;;;;;5056620;28;20465;-80
2021/04/27 02:46:27;;;;;;;7.47;6.73;;;9.20;51.40;;;;;;5065444;28;20438;-81
2021/04/27 02:48:54;;;;;;;8.00;6.50;;;9.20;51.50;;;;;;5055373;28;20449;-79
2021/04/27 02:51:20;;;;;;;6.50;5.60;;;9.20;51.60;;;;;;5055572;28;20460;-78
2021/04/27 02:53:47;;;;;;;6.97;5.70;;;9.20;51.80;;;;;;5055460;28;20470;-79
2021/04/27 02:56:13;;;;;;;7.53;6.73;;;9.20;51.80;;;;;;5054510;28;20442;-79
2021/04/27 02:58:40;;;;;;;8.33;6.40;;;9.10;51.80;;;;;;5056014;28;20450;-79
2021/04/27 03:01:07;;;;;;;9.03;7.03;;;9.10;51.70;;;;;;5059920;28;20446;-79
2021/04/27 03:03:33;;;;;;;8.27;6.67;;;9.10;51.70;;;;;;5060529;28;20480;-79
2021/04/27 03:05:59;;;;;;;7.33;6.10;;;9.10;51.70;;;;;;5057002;28;20449;-78
2021/04/27 03:08:25;;;;;;;9.77;6.90;;;9.00;51.60;;;;;;5055016;28;20449;-79
2021/04/27 03:10:53;;;;;;;7.70;6.40;;;9.00;51.80;;;;;;5054444;28;21097;-79
2021/04/27 03:13:19;;;;;;;8.47;6.73;;;9.00;52.00;;;;;;5054611;28;20520;-79
2021/04/27 03:15:46;;;;;;;7.17;6.13;;;9.00;52.60;;;;;;5056741;28;20485;-80
2021/04/27 03:18:12;;;;;;;6.10;5.57;;;8.90;52.10;;;;;;5059627;28;20819;-81
2021/04/27 03:20:41;;;;;;;7.57;6.33;;;8.90;52.40;;;;;;5059148;28;20457;-81
2021/04/27 03:23:07;;;;;;;11.13;6.47;;;8.90;52.40;;;;;;5058981;28;20458;-81
2021/04/27 03:25:34;;;;;;;7.13;5.63;;;8.80;52.80;;;;;;5059709;28;20472;-81
2021/04/27 03:28:01;;;;;;;10.23;6.53;;;8.80;52.40;;;;;;5060355;28;20465;-82
2021/04/27 03:30:27;;;;;;;6.33;5.73;;;8.80;52.30;;;;;;5059865;28;20449;-81
2021/04/27 03:32:53;;;;;;;5.93;5.17;;;8.80;52.30;;;;;;5059640;28;20820;-81
2021/04/27 03:35:20;;;;;;;6.30;5.70;;;8.70;52.20;;;;;;5060236;28;20838;-81
2021/04/27 03:37:46;;;;;;;5.97;5.37;;;8.70;52.30;;;;;;5060138;28;20955;-81
2021/04/27 03:40:13;;;;;;;10.63;6.83;;;8.70;52.40;;;;;;5060882;28;20434;-82
2021/04/27 03:42:40;;;;;;;6.00;5.30;;;8.70;52.40;;;;;;5060647;28;20957;-82
2021/04/27 03:45:10;;;;;;;6.07;5.00;;;8.70;52.40;;;;;;5061038;28;20461;-82
2021/04/27 03:47:36;;;;;;;6.23;5.43;;;8.60;52.30;;;;;;5060314;28;20432;-82
2021/04/27 03:50:03;;;;;;;7.03;5.73;;;8.60;52.30;;;;;;5060748;28;20434;-82
2021/04/27 03:52:30;;;;;;;6.20;5.60;;;8.60;52.20;;;;;;5060846;28;20453;-82
2021/04/27 03:54:56;;;;;;;6.33;5.67;;;8.60;52.20;;;;;;5060548;28;20480;-81
2021/04/27 03:57:22;;;;;;;6.20;5.60;;;8.60;52.00;;;;;;5060737;28;20450;-82
2021/04/27 03:59:48;;;;;;;8.17;6.27;;;8.60;52.10;;;;;;5060959;28;20830;-82
2021/04/27 04:02:16;;;;;;;8.10;6.83;;;8.60;52.30;;;;;;5060404;28;20469;-82
2021/04/27 04:04:42;;;;;;;6.90;5.53;;;8.60;52.30;;;;;;5058694;28;20462;-81
2021/04/27 04:07:08;;;;;;;12.70;5.87;;;8.50;52.40;;;;;;5063991;28;20425;-82
2021/04/27 04:09:34;;;;;;;6.23;5.27;;;8.50;52.30;;;;;;5065306;28;20457;-81
2021/04/27 04:12:00;;;;;;;6.70;5.67;;;8.50;52.60;;;;;;5064494;28;20451;-81
2021/04/27 04:14:27;;;;;;;8.43;6.27;;;8.50;52.80;;;;;;5065591;28;20488;-82
2021/04/27 04:16:53;;;;;;;6.93;5.83;;;8.50;52.90;;;;;;5066669;28;20448;-83
2021/04/27 04:19:20;;;;;;;6.80;5.53;;;8.40;53.00;;;;;;5064905;28;20506;-83
2021/04/27 04:21:46;;;;;;;8.30;6.10;;;8.40;53.20;;;;;;5073201;28;20467;-83
2021/04/27 04:24:12;;;;;;;6.33;5.47;;;8.40;53.80;;;;;;5072159;28;20453;-81
2021/04/27 04:26:39;;;;;;;6.07;5.57;;;8.40;53.50;;;;;;5060741;28;20779;-81
2021/04/27 04:29:05;;;;;;;7.53;5.87;;;8.40;53.50;;;;;;5059828;28;20452;-82
2021/04/27 04:31:32;;;;;;;8.80;5.87;;;8.30;53.40;;;;;;5063028;28;20441;-82
2021/04/27 04:33:59;;;;;;;7.73;6.17;;;8.30;53.40;;;;;;5062548;28;20457;-82
2021/04/27 04:36:26;;;;;;;7.87;5.90;;;8.30;53.70;;;;;;5059850;28;20469;-82
2021/04/27 04:38:53;;;;;;;7.37;6.13;;;8.30;53.80;;;;;;5058815;28;20449;-81
2021/04/27 04:41:19;;;;;;;10.33;6.37;;;8.30;53.80;;;;;;5059300;28;20434;-82
2021/04/27 04:43:45;;;;;;;6.13;5.53;;;8.30;54.00;;;;;;5059470;28;20469;-83
2021/04/27 04:46:11;;;;;;;6.73;5.70;;;8.30;53.90;;;;;;5058881;28;20437;-82
2021/04/27 04:48:37;;;;;;;6.70;6.10;;;8.30;54.20;;;;;;5059287;28;20446;-80
2021/04/27 04:51:05;;;;;;;6.13;5.53;;;8.30;54.30;;;;;;5058875;28;20419;-82
2021/04/27 04:53:32;;;;;;;7.20;4.93;;;8.30;54.00;;;;;;5057328;28;20985;-82
2021/04/27 04:55:58;;;;;;;8.10;5.70;;;8.30;54.00;;;;;;5057846;28;21020;-82
2021/04/27 04:58:24;;;;;;;6.57;5.33;;;8.30;54.00;;;;;;5057930;28;20461;-83
2021/04/27 05:00:51;;;;;;;8.70;5.97;;;8.30;54.10;;;;;;5058416;28;20434;-84
2021/04/27 05:03:17;;;;;;;9.90;6.17;;;8.30;54.30;;;;;;5056807;28;20477;-81
2021/04/27 05:05:44;;;;;;;7.20;5.20;;;8.30;54.10;;;;;;5056626;28;20442;-82
2021/04/27 05:08:13;;;;;;;7.00;5.20;;;8.30;54.00;;;;;;5057296;28;20438;-81
2021/04/27 05:10:40;;;;;;;9.40;5.37;;;8.30;54.10;;;;;;5057169;28;20480;-81
2021/04/27 05:13:13;;;;;;;5.17;4.50;;;8.30;54.30;;;;;;5056978;28;20465;-80
2021/04/27 05:15:39;;;;;;;9.53;5.80;;;8.30;54.40;;;;;;5056743;28;20515;-80
2021/04/27 05:18:06;;;;;;;5.43;4.90;;;8.30;54.50;;;;;;5056013;28;20433;-80
2021/04/27 05:20:33;;;;;;;8.40;4.90;;;8.40;54.50;;;;;;5056136;28;20443;-79
2021/04/27 05:23:00;;;;;;;6.43;4.23;;;8.40;54.10;;;;;;5056673;28;20947;-79
2021/04/27 05:25:28;;;;;;;8.83;4.77;;;8.40;53.60;;;;;;5056715;28;20449;-80
2021/04/27 05:27:55;;;;;;;7.00;4.90;;;8.50;53.60;;;;;;5056844;28;20442;-79
2021/04/27 05:30:22;;;;;;;6.00;4.50;;;8.50;53.20;;;;;;5056805;28;20457;-81
2021/04/27 05:32:49;;;;;;;7.27;5.00;;;8.60;53.20;;;;;;5057428;28;20429;-80
2021/04/27 05:35:15;;;;;;;10.27;4.33;;;8.50;52.70;;;;;;5057680;28;20515;-80
2021/04/27 05:37:41;;;;;;;6.50;5.37;;;8.50;52.40;;;;;;5056737;28;20434;-80
2021/04/27 05:40:09;;;;;;;9.13;4.43;;;8.50;52.30;;;;;;5056701;28;20795;-80
2021/04/27 05:42:35;;;;;;;6.50;3.90;;;8.50;52.30;;;;;;5056196;28;20437;-80
2021/04/27 05:45:03;;;;;;;5.20;4.00;;;8.60;51.80;;;;;;5055846;28;20515;-80
2021/04/27 05:47:30;;;;;;;4.57;4.03;;;8.80;51.50;;;;;;5055651;28;20434;-81
2021/04/27 05:49:56;;;;;;;4.03;3.67;;;8.80;51.30;;;;;;5056145;28;20460;-80
2021/04/27 05:52:22;;;;;;;14.30;4.53;;;8.90;51.00;;;;;;5056278;28;20504;-80
2021/04/27 05:54:49;;;;;;;4.03;3.30;;;8.90;50.70;;;;;;5056141;28;20497;-81
2021/04/27 05:57:15;;;;;;;4.73;3.53;;;8.90;50.50;;;;;;5056054;28;20450;-81
2021/04/27 05:59:41;;;;;;;3.60;3.30;;;9.00;50.10;;;;;;5055751;28;20463;-80
2021/04/27 06:02:08;;;;;;;7.13;4.80;;;9.10;50.00;;;;;;5056697;28;20434;-80
2021/04/27 06:04:35;;;;;;;7.20;4.10;;;9.20;49.90;;;;;;5055943;28;20488;-80
2021/04/27 06:07:01;;;;;;;5.50;4.17;;;9.30;49.90;;;;;;5056142;28;20446;-81
2021/04/27 06:09:27;;;;;;;9.37;4.27;;;9.40;49.70;;;;;;5055534;28;20816;-80
2021/04/27 06:11:56;;;;;;;6.63;3.63;;;9.40;49.40;;;;;;5056142;28;20473;-80
2021/04/27 06:14:22;;;;;;;6.10;3.40;;;9.50;49.00;;;;;;5056517;28;20980;-82
2021/04/27 06:16:48;;;;;;;4.60;3.13;;;9.60;47.90;;;;;;5056618;28;20456;-81
2021/04/27 06:19:15;;;;;;;3.83;3.10;;;9.70;48.00;;;;;;5064056;28;20487;-81
2021/04/27 06:21:43;;;;;;;5.60;3.10;;;9.80;47.90;;;;;;5056670;28;20444;-82
2021/04/27 06:24:09;;;;;;;3.87;3.57;;;9.90;47.60;;;;;;5055889;28;20994;-81
2021/04/27 06:26:36;;;;;;;5.03;3.20;;;10.10;46.50;;;;;;5055975;28;20935;-80
2021/04/27 06:29:03;;;;;;;6.03;3.17;;;10.20;46.10;;;;;;5055732;28;20458;-80
2021/04/27 06:31:29;;;;;;;4.10;3.70;;;10.30;45.50;;;;;;5055875;28;20435;-82
2021/04/27 06:33:55;;;;;;;4.27;3.23;;;10.40;45.20;;;;;;5061616;28;20476;-82
2021/04/27 06:36:22;;;;;;;4.63;3.47;;;10.40;45.30;;;;;;5060606;28;20836;-82
2021/04/27 06:38:49;;;;;;;4.17;3.33;;;10.50;45.20;;;;;;5059136;28;20436;-82
2021/04/27 06:41:15;;;;;;;5.10;2.90;;;10.60;45.20;;;;;;5059775;28;20431;-82
2021/04/27 06:43:42;;;;;;;5.03;3.00;;;10.70;44.10;;;;;;5061372;28;20471;-81
2021/04/27 06:46:08;;;;;;;4.00;3.50;;;10.80;44.00;;;;;;5063108;28;20424;-82
2021/04/27 06:48:35;;;;;;;2.83;2.63;;;10.90;43.70;;;;;;5065192;28;20453;-82
2021/04/27 06:51:01;;;;;;;4.97;2.87;;;11.00;43.80;;;;;;5061203;28;20464;-82
2021/04/27 06:53:28;;;;;;;3.80;2.47;;;11.20;43.90;;;;;;5061288;28;20519;-82
2021/04/27 06:55:54;;;;;;;5.67;2.70;;;11.40;43.40;;;;;;5058010;28;20553;-82
2021/04/27 06:58:21;;;;;;;3.60;2.50;;;11.50;43.20;;;;;;5055922;28;20441;-84
2021/04/27 07:00:47;;;;;;;6.87;2.80;;;11.70;42.80;;;;;;5058371;28;20409;-86
2021/04/27 07:03:14;;;;;;;3.33;2.83;;;11.80;42.30;;;;;;5058713;28;20544;-86
2021/04/27 07:05:41;;;;;;;3.30;2.30;;;12.00;42.20;;;;;;5059192;28;20780;-87
2021/04/27 07:08:08;;;;;;;7.30;2.80;;;12.20;42.00;;;;;;5059109;28;20462;-85
2021/04/27 07:10:35;;;;;;;3.13;2.83;;;12.40;41.80;;;;;;5060042;28;21053;-86
2021/04/27 07:13:01;;;;;;;6.60;2.87;;;12.50;41.10;;;;;;5060462;28;20418;-87
2021/04/27 07:15:28;;;;;;;3.40;3.10;;;12.70;41.00;;;;;;5060210;28;20477;-87
2021/04/27 07:17:54;;;;;;;3.57;3.03;;;12.90;40.30;;;;;;5059883;28;20444;-87
2021/04/27 07:20:22;;;;;;;3.00;2.40;;;13.10;39.70;;;;;;5060349;28;20441;-87
2021/04/27 07:22:48;;;;;;;4.40;3.00;;;13.20;39.10;;;;;;5073167;28;20456;-85
2021/04/27 07:25:15;;;;;;;4.00;2.70;;;13.40;38.80;;;;;;5078680;28;20420;-85
2021/04/27 07:27:44;;;;;;;3.43;2.43;;;13.60;38.40;;;;;;5059792;28;20417;-84
2021/04/27 07:30:12;;;;;;;4.23;2.47;;;13.70;37.40;;;;;;5058254;28;20907;-84
2021/04/27 07:32:38;;;;;;;3.63;2.70;;;13.80;37.10;;;;;;5059268;28;20446;-84
2021/04/27 07:35:06;;;;;;;2.57;2.37;;;14.00;37.20;;;;;;5057449;28;20979;-84
2021/04/27 07:37:33;;;;;;;3.33;2.67;;;14.20;36.90;;;;;;5057564;28;20794;-86
2021/04/27 07:39:59;;;;;;;2.60;2.40;;;14.30;36.10;;;;;;5056553;28;20923;-86
2021/04/27 07:42:26;;;;;;;3.57;2.10;;;14.40;35.00;;;;;;5062708;28;20441;-84
2021/04/27 07:44:53;;;;;;;4.50;2.43;;;14.60;35.40;;;;;;5062770;28;20497;-86
2021/04/27 07:47:20;;;;;;;3.70;2.90;;;14.70;35.30;;;;;;5063343;28;20470;-86
2021/04/27 07:49:47;;;;;;;3.00;2.50;;;14.80;33.80;;;;;;5063432;28;20410;-86
2021/04/27 07:52:13;;;;;;;3.63;2.50;;;15.00;34.00;;;;;;5063106;28;20547;-87
2021/04/27 07:54:40;;;;;;;5.13;2.80;;;15.20;34.20;;;;;;5063160;28;20550;-84
2021/04/27 07:57:07;;;;;;;4.20;2.50;;;15.30;32.30;;;;;;5063344;28;21011;-86
2021/04/27 07:59:33;;;;;;;2.50;2.30;;;15.40;32.70;;;;;;5063208;28;20455;-85
2021/04/27 08:02:00;;;;;;;3.73;2.30;;;15.60;33.50;;;;;;5063309;28;20765;-85
2021/04/27 08:04:26;;;;;;;3.83;2.83;;;15.80;33.30;;;;;;5067672;28;20558;-85
2021/04/27 08:06:53;;;;;;;3.73;2.30;;;15.90;32.40;;;;;;5068938;28;20962;-85
2021/04/27 08:09:19;;;;;;;3.40;2.17;;;16.10;32.40;;;;;;5065099;28;20440;-86
2021/04/27 08:11:45;;;;;;;5.30;2.70;;;16.20;32.30;;;;;;5064548;28;20465;-87
2021/04/27 08:14:13;;;;;;;9.77;2.77;;;16.40;31.80;;;;;;5062884;28;20473;-88
2021/04/27 08:16:40;;;;;;;2.83;2.63;;;16.50;30.60;;;;;;5063684;28;20469;-86
2021/04/27 08:19:07;;;;;;;6.13;2.57;;;16.70;30.90;;;;;;5062504;28;20973;-85
2021/04/27 08:21:34;;;;;;;2.20;2.00;;;16.80;28.30;;;;;;5062784;28;20448;-82
2021/04/27 08:24:00;;;;;;;3.00;2.33;;;16.70;28.60;;;;;;5062780;28;20546;-83
2021/04/27 08:26:27;;;;;;;5.10;2.23;;;16.70;28.20;;;;;;5062695;28;20443;-81
2021/04/27 08:28:54;;;;;;;2.77;2.57;;;16.70;29.70;;;;;;5062205;28;20522;-82
2021/04/27 08:31:20;;;;;;;6.70;2.90;;;16.90;29.70;;;;;;5062022;28;20789;-82
2021/04/27 08:33:46;;;;;;;2.47;2.23;;;17.00;27.60;;;;;;5061407;28;20473;-84
2021/04/27 08:36:16;;;;;;;3.80;2.87;;;16.80;27.60;;;;;;5061763;28;20464;-83
2021/04/27 08:38:42;;;;;;;2.90;2.40;;;16.90;29.40;;;;;;5061978;28;20803;-82
2021/04/27 08:41:09;;;;;;;5.47;2.60;;;17.10;29.80;;;;;;5061333;28;20434;-82
2021/04/27 08:43:36;;;;;;;3.47;2.50;;;17.30;27.40;;;;;;5061694;28;20459;-81
2021/04/27 08:46:03;;;;;;;3.37;2.13;;;17.50;27.90;;;;;;5061504;28;20872;-81
2021/04/27 08:48:29;;;;;;;3.93;2.50;;;17.80;28.90;;;;;;5061468;28;20459;-82
2021/04/27 08:50:56;;;;;;;3.20;2.83;;;18.00;28.90;;;;;;5061269;28;20430;-82
2021/04/27 08:53:24;;;;;;;3.70;3.07;;;18.10;27.20;;;;;;5066860;28;20536;-81
2021/04/27 08:55:50;;;;;;;4.20;3.10;;;18.30;27.90;;;;;;5064684;28;20492;-82
2021/04/27 08:58:17;;;;;;;4.43;2.87;;;18.60;27.50;;;;;;5068945;28;20461;-81
2021/04/27 09:00:45;;;;;;;2.40;2.20;;;18.80;27.00;;;;;;5068769;28;20457;-84
2021/04/27 09:03:12;;;;;;;4.40;2.47;;;19.10;27.50;;;;;;5067952;28;20461;-84
2021/04/27 09:05:43;;;;;;;4.10;3.27;;;19.50;27.60;;;;;;5066022;28;20434;-85
2021/04/27 09:08:09;;;;;;;3.50;2.73;;;19.80;27.10;;;;;;5064289;28;20912;-85
2021/04/27 09:10:43;;;;;;;3.10;2.03;;;20.00;26.70;;;;;;5061740;28;20446;-84
2021/04/27 09:13:12;;;;;;;2.90;2.20;;;20.20;26.30;;;;;;5058481;28;20519;-82
2021/04/27 09:15:44;;;;;;;2.77;2.30;;;20.40;25.30;;;;;;5058740;28;20481;-83
2021/04/27 09:18:24;;;;;;;2.70;2.50;;;20.20;24.00;;;;;;5058991;28;20413;-83
2021/04/27 09:20:51;;;;;;;4.30;2.50;;;20.30;25.60;;;;;;5059234;28;20804;-80
2021/04/27 09:23:18;;;;;;;4.67;2.33;;;20.40;25.70;;;;;;5057650;28;20480;-82
2021/04/27 09:26:13;;;;;;;3.13;2.50;;;20.60;26.10;;;;;;5058071;28;20414;-82
2021/04/27 09:28:40;;;;;;;3.30;2.67;;;20.80;26.00;;;;;;5057832;28;20460;-82
2021/04/27 09:31:24;;;;;;;3.13;2.47;;;21.00;25.90;;;;;;5058240;28;20494;-83
2021/04/27 09:33:51;;;;;;;4.30;2.60;;;21.30;25.50;;;;;;5058195;28;20465;-80
2021/04/27 09:36:19;;;;;;;3.43;2.23;;;21.40;25.40;;;;;;5058551;28;20477;-80
2021/04/27 09:38:46;;;;;;;2.30;2.10;;;21.60;25.10;;;;;;5058403;28;20426;-82
2021/04/27 09:41:13;;;;;;;3.13;2.50;;;21.90;24.70;;;;;;5060580;28;20407;-82
2021/04/27 09:43:41;;;;;;;4.20;2.10;;;22.10;24.00;;;;;;5060294;28;20453;-83
2021/04/27 09:46:10;;;;;;;2.63;2.03;;;22.40;24.10;;;;;;5062418;28;20878;-82
2021/04/27 09:48:38;;;;;;;4.50;2.67;;;22.80;24.10;;;;;;5065879;28;20442;-82
2021/04/27 09:51:22;;;;;;;3.90;2.57;;;23.10;23.40;;;;;;5071435;28;20939;-83
2021/04/27 09:53:53;;;;;;;2.50;2.30;;;23.30;22.30;;;;;;5066670;28;20568;-84
2021/04/27 09:56:38;;;;;;;3.40;2.67;;;23.30;21.70;;;;;;5063003;28;20462;-83
2021/04/27 09:59:07;;;;;;;2.40;2.20;;;23.30;22.60;;;;;;5059790;28;20544;-83
2021/04/27 10:01:33;;;;;;;3.30;3.00;;;23.40;22.90;;;;;;5058904;28;20434;-82
2021/04/27 10:04:00;;;;;;;3.33;3.03;;;23.50;22.80;;;;;;5057944;28;20466;-81
2021/04/27 10:06:27;;;;;;;4.20;2.67;;;23.90;22.50;;;;;;5058892;28;20849;-83
2021/04/27 10:08:54;;;;;;;2.50;2.30;;;24.40;22.10;;;;;;5059803;28;20468;-83
2021/04/27 10:11:22;;;;;;;4.73;2.80;;;24.60;21.80;;;;;;5058303;28;20457;-82
2021/04/27 10:13:49;;;;;;;2.40;2.20;;;24.60;21.80;;;;;;5059911;28;20841;-81
2021/04/27 10:16:15;;;;;;;3.63;2.80;;;24.50;21.70;;;;;;5060184;28;20477;-82
2021/04/27 10:18:42;;;;;;;2.40;2.20;;;24.40;21.30;;;;;;5058917;28;20869;-83
2021/04/27 10:21:10;;;;;;;2.20;2.10;;;24.30;21.40;;;;;;5059246;28;20450;-82
2021/04/27 10:23:39;;;;;;;6.53;2.63;;;24.20;21.60;;;;;;5060005;28;20477;-83
2021/04/27 10:26:05;;;;;;;3.30;3.00;;;24.10;20.30;;;;;;5073024;28;20444;-81
2021/04/27 10:28:56;;;;;;;3.67;3.37;;;23.80;20.20;;;;;;5079379;28;20456;-81
2021/04/27 10:31:23;;;;;;;2.90;2.70;;;23.40;19.80;;;;;;5053931;28;20450;-80
2021/04/27 10:33:58;;;;;;;5.40;2.60;;;23.40;20.40;;;;;;5061320;28;20986;-80
2021/04/27 10:36:26;;;;;;;2.47;1.90;;;23.80;22.10;;;;;;5060958;28;20867;-82
2021/04/27 10:38:56;;;;;;;3.77;3.00;;;24.50;22.40;;;;;;5060637;28;20457;-81
2021/04/27 10:41:27;;;;;;;3.67;2.80;;;25.50;21.40;;;;;;5058084;28;20476;-80
2021/04/27 10:43:59;;;;;;;3.00;2.80;;;26.50;20.90;;;;;;5057872;28;20527;-84
2021/04/27 10:47:02;;;;;;;4.07;2.40;;;27.50;17.70;;;;;;5056626;28;20953;-80
2021/04/27 10:49:37;;;;;;;3.73;3.20;;;28.50;17.30;;;;;;5055759;28;20487;-80
2021/04/27 10:52:26;;;;;;;3.87;3.43;;;29.50;16.80;;;;;;5058408;28;20462;-80
2021/04/27 10:54:52;;;;;;;2.77;2.53;;;30.20;15.60;;;;;;5057790;28;20808;-81
2021/04/27 10:57:19;;;;;;;3.33;2.60;;;30.60;16.20;;;;;;5057720;28;20450;-79
2021/04/27 10:59:54;;;;;;;3.00;2.80;;;31.20;16.60;;;;;;5058074;28;20449;-80
2021/04/27 11:02:24;;;;;;;3.03;2.73;;;31.60;16.60;;;;;;5057647;28;20441;-81
2021/04/27 11:04:52;;;;;;;3.33;3.13;;;31.60;16.20;;;;;;5056960;28;20476;-84
2021/04/27 11:07:33;;;;;;;6.70;3.17;;;31.80;16.10;;;;;;5056039;28;20430;-84
2021/04/27 11:10:30;;;;;;;4.37;4.07;;;32.20;15.70;;;;;;5056647;28;20796;-84
2021/04/27 11:13:00;;;;;;;4.50;4.03;;;33.00;12.90;;;;;;5057841;28;20441;-83
2021/04/27 11:15:29;;;;;;;3.77;3.47;;;33.10;12.90;;;;;;5056630;28;20462;-83
2021/04/27 11:18:03;;;;;;;3.70;3.50;;;33.20;12.60;;;;;;5056290;28;20445;-83
2021/04/27 11:20:51;;;;;;;3.33;2.97;;;33.40;13.10;;;;;;5056778;28;20520;-81
2021/04/27 11:23:45;;;;;;;3.97;3.67;;;33.40;14.00;;;;;;5056108;28;20530;-83
2021/04/27 11:26:51;;;;;;;3.90;3.60;;;33.60;13.80;;;;;;5056737;28;20520;-84
2021/04/27 11:29:28;;;;;;;3.80;3.60;;;34.20;14.30;;;;;;5056952;28;20439;-82
2021/04/27 11:32:07;;;;;;;4.90;4.40;;;34.60;13.40;;;;;;5056735;28;20507;-83
2021/04/27 11:34:51;;;;;;;3.50;3.20;;;34.80;11.20;;;;;;5056857;28;20461;-83
2021/04/27 11:37:20;;;;;;;3.70;3.40;;;35.10;12.80;;;;;;5058446;28;20421;-82
2021/04/27 11:39:46;;;;;;;3.63;3.27;;;35.50;13.10;;;;;;5064995;28;20449;-81
2021/04/27 11:42:13;;;;;;;3.40;3.10;;;35.80;12.70;;;;;;5056391;28;20418;-83
2021/04/27 11:44:41;;;;;;;5.20;4.80;;;36.10;12.60;;;;;;5054969;28;20473;-81
2021/04/27 11:47:14;;;;;;;3.60;3.30;;;36.20;12.40;;;;;;5055168;28;20433;-84
2021/04/27 11:49:55;;;;;;;3.27;3.07;;;36.20;12.00;;;;;;5055121;28;20449;-82
2021/04/27 11:52:50;;;;;;;3.73;3.10;;;36.40;12.30;;;;;;5054717;28;20437;-84
2021/04/27 11:55:26;;;;;;;3.40;3.10;;;36.60;11.80;;;;;;5055188;28;20473;-83
2021/04/27 11:57:56;;;;;;;3.50;3.20;;;36.50;12.10;;;;;;5055828;28;20452;-83
2021/04/27 12:00:34;;;;;;;2.90;2.70;;;36.50;12.30;;;;;;5054395;28;20439;-83
2021/04/27 12:03:13;;;;;;;4.03;3.27;;;36.80;12.40;;;;;;5054874;28;20425;-84
2021/04/27 12:05:40;;;;;;;3.23;2.93;;;37.00;11.90;;;;;;5054805;28;20444;-81
2021/04/27 12:08:18;;;;;;;4.00;2.70;;;37.30;12.10;;;;;;5055013;28;20433;-82
2021/04/27 12:10:45;;;;;;;5.77;3.10;;;37.60;11.90;;;;;;5056325;28;20220;-83
2021/04/27 12:13:20;;;;;;;3.87;3.10;;;38.10;11.70;;;;;;5057158;28;20248;-82
2021/04/27 12:16:01;;;;;;;4.30;4.00;;;38.60;11.20;;;;;;5056200;28;20263;-85
2021/04/27 12:18:28;;;;;;;4.20;3.88;;;39.10;10.80;;;;;;5056815;28;20532;-88
2021/04/27 12:20:54;;;;;;;3.88;3.25;;;39.60;9.60;;;;;;5055685;28;20252;-86
2021/04/27 12:23:22;;;;;;;4.95;2.92;;;39.90;9.10;;;;;;5056263;28;20237;-84
2021/04/27 12:25:49;;;;;;;2.78;2.20;;;40.20;10.20;;;;;;5056426;28;20202;-84
2021/04/27 12:28:19;;;;;;;3.03;2.78;;;40.50;9.80;;;;;;5058770;28;20199;-85
2021/04/27 12:30:47;;;;;;;5.55;2.20;;;40.80;9.70;;;;;;5060374;28;20560;-86
2021/04/27 12:33:16;;;;;;;4.20;2.78;;;41.20;9.50;;;;;;5060599;28;20712;-84
2021/04/27 12:35:44;;;;;;;3.05;2.85;;;41.50;8.90;;;;;;5060501;28;20288;-88
2021/04/27 12:38:12;;;;;;;3.97;3.10;;;41.90;8.20;;;;;;5060668;28;20222;-87
2021/04/27 12:40:43;;;;;;;2.83;2.63;;;42.10;8.10;;;;;;5059514;28;20289;-87
2021/04/27 12:43:11;;;;;;;3.05;2.80;;;42.40;8.20;;;;;;5061113;28;20317;-85
2021/04/27 12:45:46;;;;;;;4.45;3.03;;;42.60;8.40;;;;;;5061332;28;20186;-85
2021/04/27 12:48:13;;;;;;;3.45;3.15;;;42.90;7.60;;;;;;5062050;28;20195;-86
2021/04/27 12:50:47;;;;;;;5.20;2.78;;;43.10;7.90;;;;;;5061905;28;20305;-85
2021/04/27 12:53:13;;;;;;;2.90;2.33;;;43.30;8.00;;;;;;5064291;28;20199;-83
2021/04/27 12:55:49;;;;;;;4.18;2.53;;;43.50;7.60;;;;;;5066060;28;20245;-85
2021/04/27 12:58:17;;;;;;;3.67;3.10;;;43.70;7.90;;;;;;5062804;28;20191;-85